Yonatan Shechter

Olheiro-Chefe - Beitar Jerusalem
10 Abr 2029
Terça-feira
Processo

Personalidade

Adaptabilidade (12) Ambição (7) Controvérsia (16) Lealdade (1) Pressão (7) Profissionalismo (18) Espírito Esportivo (9) Temperamento (10)

Perfil

Estilo de Treinamento Democrático
Licença Continental C
Determinação 6
Gestão de Pessoas 6
Motivação 10
Disciplina 9
Satisfação no Trabalho
100%
Fadiga
0%
Função Olheiro-Chefe
Salário 22.4K p/s
Contrato 14.03.2030

Desempenho

Comportamento Bom
Eficácia do Treinamento
39%
Desenvolvimento do Jogador
20%
Prevenção de Lesões
40%
Implementação Tática
25%

Monitorando agora

62
Jogador Clube Status Habilidade Confiança Observado Última observação Último voto
Tobiáš Pališčák AS Trencin Ativo 101 / 121 40% 1 16.01.2029 -
Jacob Hall Latina Ativo 94 / 90 40% 1 16.01.2029 -
Mousa Mignolet Vitesse Ativo 107 / 110 40% 1 16.01.2029 -
Matías Melluso Gimnasia La Plata Ativo 131 / 125 40% 2 07.01.2029 -
Ronnie Harvey Colchester United Ativo 103 / 100 40% 2 07.01.2029 -
Isaiah Alakiu Persebaya Ativo 87 / 97 40% 1 07.01.2029 -
Pablo Ramón Banfield Ativo 136 / 123 40% 1 07.01.2029 -
Matías Vera Nueva Chicago Negociando 110 / 116 40% 1 07.01.2029 -
Daniel Dappa Hapoel Tel Aviv Perdido 126 / 128 69% 1 06.01.2029 Aprovar
Tiago Gordillo San Miguel Ativo 87 / 96 40% 1 06.01.2029 -
Matías Magdaleno Estudiantes Ativo 104 / 112 40% 1 04.01.2029 -
Raul Kumar Istra 1961 Ativo 129 / 136 40% 1 02.01.2029 -
Saba Kharebashvili Besiktas Ativo 147 / 148 40% 1 02.01.2029 -
Or Israelov Hapoel Tel Aviv Ativo 122 / 135 69% 1 01.01.2029 Aprovar
Anderson Acevedo Patriotas Ativo 79 / 97 40% 1 01.01.2029 -
Djibril Coulibaly Paris FC Ativo 125 / 117 40% 1 01.01.2029 -
Ben Sheaf Wrexham Ativo 147 / 141 40% 2 02.08.2028 -
Joel Bagan Cardiff City Ativo 135 / 131 40% 1 02.08.2028 -
Dion Sanderson Bristol Rovers Ativo 134 / 137 40% 1 02.08.2028 -
Marc Bola Watford Ativo 124 / 123 40% 1 01.08.2028 -
Jimmy Dunne Queens Park Rangers Ativo 138 / 119 40% 1 01.08.2028 -
Nnamdi Ofoborh Barnet Ativo 116 / 121 40% 1 08.06.2028 -
Nejc Viher NK Maribor Ativo 120 / 136 40% 1 03.06.2028 -
Han Willhoft-King Altamura Ativo 99 / 91 40% 1 17.01.2028 -
Jamie Wähling Marsaxlokk Ativo 91 / 77 40% 1 02.01.2028 -
Saar Elkayam Hapoel Haifa Ativo 83 / 105 58% 1 30.08.2027 -
Enzo Cardozo Defensa y Justicia Ativo 105 / 121 40% 1 20.08.2027 -
Yaroslav Matyukhin Alashkert Ativo 90 / 92 40% 2 18.08.2027 -
Sebastián Flores Ferro Carril Oeste Ativo 112 / 108 40% 1 18.08.2027 -
Alin Kumer Čelik Genoa Ativo 103 / 96 40% 1 17.08.2027 -
Juan Manuel Villalba Estudiantes Ativo 108 / 107 40% 1 17.08.2027 -
Matías Gómez Independiente Ativo 99 / 113 40% 1 16.08.2027 -
Cal Jennings ASO Chlef Ativo 104 / 96 40% 1 06.08.2027 -
Samuel Anakwe Remo Stars Ativo 91 / 84 40% 1 06.08.2027 -
Duncan Watmore Rotherham United Ativo 98 / 99 40% 1 04.08.2027 -
Lucas Cano All Boys Ativo 126 / 111 40% 1 04.08.2027 -
Rafael Arace Caracas Ativo 108 / 122 40% 1 03.08.2027 -
Ekain Orobengoa Real Sociedad Ativo 109 / 105 40% 1 03.08.2027 -
Josh Andrews Barnet Ativo 94 / 94 40% 1 29.07.2027 -
Patrick Adjei BA All Stars Ativo 108 / 108 40% 1 19.07.2027 -
Jean Marie Dongou Canon Yaounde Ativo 105 / 91 40% 1 19.07.2027 -
Lorenzo De Leo Renate Ativo 84 / 108 40% 1 02.06.2027 -
Dolev Haziza Maccabi Netanya Ativo 103 / 110 51% 1 18.01.2027 -
Hamdi Labidi Olympique Akbou Ativo 101 / 113 40% 1 09.01.2027 -
Razhab Magomedov Dinamo Makhachkala Ativo 92 / 104 40% 1 09.01.2027 -
Kamran Aliev SKA Khabarovsk Ativo 90 / 104 40% 1 07.01.2027 -
Kristian Dimitrov Levski Ativo 111 / 117 40% 1 27.08.2026 -
Brais Martínez Burgos Ativo 105 / 118 40% 1 26.08.2026 -
Rodrigo Gallo Deportivo Riestra Ativo 116 / 103 40% 1 26.08.2026 -
Agustín Pérez Deportivo Tachira Ativo 116 / 104 40% 1 25.08.2026 -
Cristhián Rivas Estudiantes de Merida Ativo 97 / 104 40% 1 25.08.2026 -
Francisco Gerometta Godoy Cruz Ativo 96 / 122 40% 1 25.08.2026 -
Simeon Petrov Botev Plovdiv Ativo 97 / 105 40% 1 24.08.2026 -
Daniel Felczer Bnei Sakhnin Ativo 88 / 90 40% 1 22.08.2026 -
Yoav Hofmeister PSIM Ativo 97 / 105 40% 1 19.08.2026 -
Lucas Souto Defensa y Justicia Ativo 116 / 116 40% 1 18.08.2026 -
Carlos Faya Deportivo La Guaira Ativo 102 / 110 40% 1 17.08.2026 -
Bautista Lo Menzo Independiente Ativo 99 / 119 40% 1 11.08.2026 -
Emmanuel Boateng Hapoel Tel Aviv Ativo 128 / 115 40% 1 10.08.2026 -
Nathan Moriah-Welsh Mansfield Town Ativo 125 / 101 40% 1 10.08.2026 -
César Galíndez Belgrano Ativo 79 / 105 40% 1 05.08.2026 -
Ido Cohen Maccabi Petach Tikva Ativo 92 / 107 40% 1 05.08.2026 -